Terminal Aerodrome Forecast
Issued by NWS

Home | Current Version | Previous Version | Text Only | Print | Product List | Glossary On
Versions: 1 2 3 4 5 6 7 8 9 10 11 12
000
FTUS42 TJSJ 040544
TAFKPK
TAF
TKPK 040544Z 0406/0506 05012KT P6SM FEW022
      AMD NOT SKED TIL 041100=

USA.gov is the U.S. government's official web portal to all federal, state and local government web resources and services.